createdAt,value
2017-07-14T00:02:21.216Z,4.43
2017-07-14T00:04:48.741Z,3.97
2017-07-14T00:07:17.032Z,3.63
2017-07-14T00:09:44.513Z,4.40
2017-07-14T00:12:12.233Z,4.80
2017-07-14T00:14:39.762Z,3.87
2017-07-14T00:17:07.309Z,4.00
2017-07-14T00:19:34.849Z,4.47
2017-07-14T00:22:02.393Z,4.93
2017-07-14T00:24:29.961Z,3.97
2017-07-14T00:26:57.474Z,4.17
2017-07-14T00:29:25.001Z,4.10
2017-07-14T00:31:52.530Z,4.20
2017-07-14T00:34:20.809Z,4.30
2017-07-14T00:36:49.181Z,4.23
2017-07-14T00:39:16.741Z,4.80
2017-07-14T00:41:44.233Z,5.37
2017-07-14T00:44:11.921Z,5.00
2017-07-14T00:46:39.465Z,4.13
2017-07-14T00:49:06.961Z,4.30
2017-07-14T00:51:34.654Z,4.53
2017-07-14T00:54:02.192Z,5.07
2017-07-14T00:56:29.688Z,4.70
2017-07-14T00:58:57.212Z,4.33
2017-07-14T01:01:24.716Z,4.83
2017-07-14T01:03:52.221Z,4.60
2017-07-14T01:06:19.844Z,4.93
2017-07-14T01:08:47.334Z,4.60
2017-07-14T01:11:15.601Z,4.73
2017-07-14T01:13:43.877Z,5.43
2017-07-14T01:16:11.417Z,5.03
2017-07-14T01:18:38.961Z,5.00
2017-07-14T01:21:06.448Z,4.40
2017-07-14T01:23:34.148Z,4.03
2017-07-14T01:26:01.633Z,4.63
2017-07-14T01:28:29.140Z,4.93
2017-07-14T01:30:56.696Z,4.37
2017-07-14T01:33:24.221Z,4.77
2017-07-14T01:35:51.801Z,4.57
2017-07-14T01:38:19.419Z,4.83
2017-07-14T01:40:47.162Z,5.03
2017-07-14T01:43:14.649Z,4.90
2017-07-14T01:45:42.146Z,5.67
2017-07-14T01:48:09.667Z,5.30
2017-07-14T01:50:37.949Z,5.20
2017-07-14T01:53:05.489Z,5.43
2017-07-14T01:55:33.173Z,5.13
2017-07-14T01:58:00.661Z,5.20
2017-07-14T02:00:28.924Z,5.20
2017-07-14T02:02:56.473Z,4.30
2017-07-14T02:05:23.973Z,4.83
2017-07-14T02:07:51.483Z,5.77
2017-07-14T02:10:19.021Z,5.30
2017-07-14T02:12:46.553Z,4.80
2017-07-14T02:15:14.073Z,5.73
2017-07-14T02:17:42.329Z,6.40
2017-07-14T02:20:10.585Z,5.57
2017-07-14T02:22:38.880Z,7.00
2017-07-14T02:25:06.421Z,6.60
2017-07-14T02:27:33.965Z,6.53
2017-07-14T02:30:01.478Z,6.37
2017-07-14T02:32:29.745Z,5.65
2017-07-14T02:34:57.338Z,6.93
2017-07-14T02:37:24.836Z,6.15
2017-07-14T02:39:52.373Z,5.55
2017-07-14T02:42:19.949Z,6.35
2017-07-14T02:44:47.444Z,6.47
2017-07-14T02:47:15.034Z,6.82
2017-07-14T02:49:42.580Z,6.47
2017-07-14T02:52:10.126Z,6.70
2017-07-14T02:54:37.669Z,7.10
2017-07-14T02:57:05.197Z,6.15
2017-07-14T02:59:32.732Z,6.25
2017-07-14T03:02:00.231Z,6.32
2017-07-14T03:04:27.737Z,6.70
2017-07-14T03:06:55.305Z,7.32
2017-07-14T03:09:22.838Z,6.50
2017-07-14T03:11:51.165Z,6.68
2017-07-14T03:14:18.744Z,6.70
2017-07-14T03:16:46.273Z,7.80
2017-07-14T03:21:47.859Z,7.15
2017-07-14T03:24:15.453Z,8.13
2017-07-14T03:26:42.949Z,7.62
2017-07-14T03:29:10.465Z,8.10
2017-07-14T03:31:37.952Z,7.72
2017-07-14T03:34:06.208Z,8.77
2017-07-14T03:36:34.710Z,8.18
2017-07-14T03:39:02.209Z,8.45
2017-07-14T03:41:29.721Z,9.60
2017-07-14T03:43:57.247Z,7.95
2017-07-14T03:46:25.362Z,7.80
2017-07-14T03:48:53.634Z,8.90
2017-07-14T03:51:21.225Z,7.35
2017-07-14T03:53:48.753Z,9.02
2017-07-14T03:56:16.292Z,8.57
2017-07-14T03:58:43.834Z,9.18
2017-07-14T04:01:11.338Z,8.82
2017-07-14T04:03:39.640Z,8.80
2017-07-14T04:06:07.277Z,10.23
2017-07-14T04:08:34.826Z,9.20
2017-07-14T04:11:02.365Z,9.98
2017-07-14T04:13:29.918Z,8.98
2017-07-14T04:15:57.438Z,9.25
2017-07-14T04:18:25.004Z,10.00
2017-07-14T04:20:52.586Z,9.35
2017-07-14T04:23:20.198Z,9.88
2017-07-14T04:25:47.709Z,10.25
2017-07-14T04:28:15.278Z,9.73
2017-07-14T04:30:42.773Z,9.88
2017-07-14T04:33:11.077Z,9.95
2017-07-14T04:35:38.623Z,10.10
2017-07-14T04:38:06.121Z,9.52
2017-07-14T04:40:34.380Z,9.07
2017-07-14T04:43:02.681Z,9.55
2017-07-14T04:45:30.433Z,9.02
2017-07-14T04:47:57.940Z,11.15
2017-07-14T04:50:26.221Z,11.25
2017-07-14T04:52:53.798Z,10.70
2017-07-14T04:55:21.313Z,9.83
2017-07-14T04:57:48.874Z,10.05
2017-07-14T05:00:16.365Z,10.40
2017-07-14T05:02:43.857Z,12.07
2017-07-14T05:05:11.392Z,10.13
2017-07-14T05:07:38.938Z,10.80
2017-07-14T05:10:06.478Z,10.40
2017-07-14T05:12:33.985Z,10.27
2017-07-14T05:15:02.284Z,9.97
2017-07-14T05:17:29.799Z,9.97
2017-07-14T05:19:58.120Z,10.67
2017-07-14T05:22:25.853Z,10.20
2017-07-14T05:24:53.366Z,10.27
2017-07-14T05:27:21.029Z,9.60
2017-07-14T05:29:48.573Z,10.33
2017-07-14T05:32:16.117Z,10.77
2017-07-14T05:34:43.616Z,11.00
2017-07-14T05:37:11.114Z,10.33
2017-07-14T05:39:38.840Z,10.87
2017-07-14T05:42:06.329Z,11.13
2017-07-14T05:44:33.821Z,11.00
2017-07-14T05:47:01.545Z,10.97
2017-07-14T05:49:29.093Z,11.37
2017-07-14T05:51:56.596Z,10.60
2017-07-14T05:54:24.178Z,11.60
2017-07-14T05:56:51.717Z,10.77
2017-07-14T05:59:19.223Z,11.30
2017-07-14T06:01:47.525Z,11.57
2017-07-14T06:04:15.275Z,10.57
2017-07-14T06:06:42.853Z,11.23
2017-07-14T06:09:10.374Z,11.30
2017-07-14T06:11:37.920Z,10.40
2017-07-14T06:14:05.417Z,10.20
2017-07-14T06:16:33.713Z,10.77
2017-07-14T06:19:01.207Z,10.90
2017-07-14T06:21:28.704Z,10.30
2017-07-14T06:23:56.262Z,10.23
2017-07-14T06:26:23.757Z,10.70
2017-07-14T06:28:52.021Z,9.93
2017-07-14T06:31:19.581Z,10.67
2017-07-14T06:33:47.073Z,11.07
2017-07-14T06:36:14.561Z,9.90
2017-07-14T06:38:42.134Z,9.80
2017-07-14T06:41:09.645Z,10.60
2017-07-14T06:43:37.219Z,10.10
2017-07-14T06:46:04.833Z,10.20
2017-07-14T06:48:32.341Z,9.67
2017-07-14T06:51:00.641Z,10.10
2017-07-14T06:53:28.181Z,9.73
2017-07-14T06:55:55.722Z,9.93
2017-07-14T06:58:23.474Z,8.90
2017-07-14T07:00:50.980Z,8.70
2017-07-14T07:03:19.255Z,9.20
2017-07-14T07:05:46.835Z,8.77
2017-07-14T07:08:14.365Z,9.30
2017-07-14T07:10:41.861Z,9.03
2017-07-14T07:13:09.449Z,8.53
2017-07-14T07:15:37.014Z,9.60
2017-07-14T07:18:04.505Z,9.17
2017-07-14T07:20:32.797Z,9.57
2017-07-14T07:23:00.342Z,10.07
2017-07-14T07:25:27.889Z,9.37
2017-07-14T07:27:55.429Z,7.87
2017-07-14T07:30:23.078Z,7.70
2017-07-14T07:32:50.650Z,8.17
2017-07-14T07:35:18.171Z,7.40
2017-07-14T07:37:45.727Z,6.87
2017-07-14T07:40:13.262Z,7.77
2017-07-14T07:42:40.772Z,6.47
2017-07-14T07:45:08.309Z,6.40
2017-07-14T07:47:41.602Z,5.87
2017-07-14T07:50:09.168Z,7.17
2017-07-14T07:52:36.731Z,6.60
2017-07-14T07:55:04.264Z,5.93
2017-07-14T07:57:31.749Z,5.50
2017-07-14T08:00:00.012Z,4.87
2017-07-14T08:02:28.277Z,4.40
2017-07-14T08:04:56.533Z,4.80
2017-07-14T08:07:24.914Z,4.70
2017-07-14T08:09:52.462Z,4.50
2017-07-14T08:12:19.961Z,4.83
2017-07-14T08:14:47.464Z,4.60
2017-07-14T08:17:14.961Z,5.43
2017-07-14T08:19:43.235Z,5.30
2017-07-14T08:22:10.993Z,4.53
2017-07-14T08:24:38.545Z,4.37
2017-07-14T08:27:06.074Z,4.43
2017-07-14T08:29:33.621Z,6.03
2017-07-14T08:32:01.168Z,5.90
2017-07-14T08:34:28.709Z,6.73
2017-07-14T08:36:56.257Z,6.63
2017-07-14T08:39:23.765Z,5.20
2017-07-14T08:41:51.345Z,5.50
2017-07-14T08:44:18.884Z,5.07
2017-07-14T08:46:46.433Z,5.30
2017-07-14T08:49:14.071Z,5.13
2017-07-14T08:51:41.580Z,5.53
2017-07-14T08:54:09.178Z,5.50
2017-07-14T08:56:36.712Z,5.97
2017-07-14T08:59:04.209Z,6.70
2017-07-14T09:01:31.801Z,5.37
2017-07-14T09:03:59.305Z,5.50
2017-07-14T09:06:26.828Z,4.83
2017-07-14T09:08:54.313Z,6.50
2017-07-14T09:11:21.877Z,6.50
2017-07-14T09:13:49.416Z,5.87
2017-07-14T09:16:16.957Z,6.10
2017-07-14T09:18:44.441Z,6.80
2017-07-14T09:21:11.945Z,6.63
2017-07-14T09:23:39.496Z,6.33
2017-07-14T09:26:07.046Z,7.03
2017-07-14T09:28:34.581Z,6.10
2017-07-14T09:31:02.118Z,5.90
2017-07-14T09:33:29.663Z,5.37
2017-07-14T09:35:57.186Z,5.00
2017-07-14T09:38:25.441Z,5.30
2017-07-14T09:40:53.694Z,6.57
2017-07-14T09:43:21.981Z,6.40
2017-07-14T09:45:49.462Z,6.00
2017-07-14T09:48:16.972Z,6.13
2017-07-14T09:50:44.500Z,6.37
2017-07-14T09:53:12.149Z,5.90
2017-07-14T09:55:39.665Z,4.47
2017-07-14T09:58:08.188Z,5.60
2017-07-14T10:00:35.688Z,5.50
2017-07-14T10:03:03.979Z,6.40
2017-07-14T10:05:31.477Z,6.20
2017-07-14T10:07:59.063Z,5.43
2017-07-14T10:10:26.604Z,4.90
2017-07-14T10:12:54.089Z,4.00
2017-07-14T10:15:21.698Z,4.90
2017-07-14T10:17:49.234Z,3.60
2017-07-14T10:20:16.722Z,4.17
2017-07-14T10:22:44.280Z,5.00
2017-07-14T10:25:11.870Z,3.77
2017-07-14T10:27:39.366Z,4.83
2017-07-14T10:30:06.880Z,4.07
2017-07-14T10:32:34.393Z,4.10
2017-07-14T10:35:01.947Z,4.70
2017-07-14T10:37:29.432Z,4.60
2017-07-14T10:39:56.925Z,5.43
2017-07-14T10:42:24.409Z,4.27
2017-07-14T10:44:52.008Z,5.83
2017-07-14T10:47:19.554Z,5.20
2017-07-14T10:49:47.045Z,5.37
2017-07-14T10:52:14.557Z,5.47
2017-07-14T10:54:42.060Z,6.73
2017-07-14T10:57:10.366Z,6.83
2017-07-14T10:59:37.858Z,7.03
2017-07-14T11:02:06.110Z,6.23
2017-07-14T11:04:34.401Z,6.50
2017-07-14T11:07:02.661Z,6.50
2017-07-14T11:09:30.210Z,6.80
2017-07-14T11:11:57.749Z,7.77
2017-07-14T11:14:25.268Z,6.07
2017-07-14T11:16:53.528Z,6.27
2017-07-14T11:19:21.822Z,5.73
2017-07-14T11:21:49.322Z,6.20
2017-07-14T11:24:16.822Z,6.03
2017-07-14T11:26:44.328Z,5.23
2017-07-14T11:29:12.598Z,6.80
2017-07-14T11:31:40.096Z,6.30
2017-07-14T11:34:07.643Z,7.10
2017-07-14T11:36:35.918Z,4.50
2017-07-14T11:39:03.430Z,3.80
2017-07-14T11:41:31.041Z,3.70
2017-07-14T11:43:58.581Z,4.17
2017-07-14T11:46:26.085Z,4.13
2017-07-14T11:48:53.622Z,3.50
2017-07-14T11:51:21.177Z,3.30
2017-07-14T11:53:48.661Z,3.10
2017-07-14T11:56:16.365Z,2.70
2017-07-14T11:58:43.861Z,2.90
2017-07-14T12:01:11.351Z,2.70
2017-07-14T12:03:38.898Z,3.90
2017-07-14T12:06:06.424Z,3.93
2017-07-14T12:08:33.940Z,3.40
2017-07-14T12:11:01.520Z,3.30
2017-07-14T12:13:29.066Z,3.53
2017-07-14T12:15:56.810Z,4.10
2017-07-14T12:18:24.356Z,4.30
2017-07-14T12:20:51.846Z,5.47
2017-07-14T12:23:19.455Z,4.07
2017-07-14T12:25:46.995Z,4.93
2017-07-14T12:28:14.495Z,4.23
2017-07-14T12:30:42.775Z,3.80
2017-07-14T12:33:10.296Z,3.83
2017-07-14T12:35:38.630Z,4.20
2017-07-14T12:38:06.137Z,3.73
2017-07-14T12:40:33.620Z,4.30
2017-07-14T12:43:01.309Z,3.80
2017-07-14T12:45:28.878Z,4.00
2017-07-14T12:47:57.130Z,4.60
2017-07-14T12:50:25.397Z,4.67
2017-07-14T12:52:53.681Z,4.00
2017-07-14T12:55:21.198Z,4.47
2017-07-14T12:57:49.493Z,5.00
2017-07-14T13:00:16.980Z,4.30
2017-07-14T13:02:44.508Z,5.43
2017-07-14T13:05:12.021Z,6.10
2017-07-14T13:07:39.541Z,5.33
2017-07-14T13:10:07.095Z,5.43
2017-07-14T13:12:34.588Z,6.77
2017-07-14T13:15:02.097Z,5.87
2017-07-14T13:17:29.581Z,5.57
2017-07-14T13:19:57.075Z,5.67
2017-07-14T13:22:24.698Z,6.70
2017-07-14T13:24:52.953Z,4.97
2017-07-14T13:27:21.239Z,6.90
2017-07-14T13:29:48.783Z,5.73
2017-07-14T13:32:16.301Z,6.70
2017-07-14T13:34:44.645Z,7.20
2017-07-14T13:37:12.976Z,7.07
2017-07-14T13:39:40.493Z,7.10
2017-07-14T13:42:08.037Z,6.93
2017-07-14T13:44:35.573Z,6.60
2017-07-14T13:47:03.117Z,6.67
2017-07-14T13:49:30.665Z,5.80
2017-07-14T13:51:58.212Z,5.60
2017-07-14T13:54:25.745Z,5.30
2017-07-14T13:56:53.393Z,5.90
2017-07-14T13:59:20.924Z,5.10
2017-07-14T14:01:48.419Z,5.43
2017-07-14T14:04:15.929Z,5.10
2017-07-14T14:06:43.481Z,6.20
2017-07-14T14:09:11.012Z,5.83
2017-07-14T14:11:38.511Z,5.30
2017-07-14T14:14:06.021Z,5.33
2017-07-14T14:16:33.509Z,5.80
2017-07-14T14:19:01.080Z,6.53
2017-07-14T14:21:28.829Z,7.10
2017-07-14T14:23:56.377Z,7.50
2017-07-14T14:26:23.917Z,7.67
2017-07-14T14:28:51.675Z,8.33
2017-07-14T14:31:19.323Z,8.33
2017-07-14T14:33:46.821Z,8.80
2017-07-14T14:36:14.337Z,10.23
2017-07-14T14:38:41.853Z,10.03
2017-07-14T14:41:09.390Z,10.23
2017-07-14T14:43:36.933Z,10.50
2017-07-14T14:46:04.677Z,12.60
2017-07-14T14:48:32.165Z,12.30
2017-07-14T14:50:59.660Z,11.50
2017-07-14T14:53:27.208Z,12.43
2017-07-14T14:55:54.696Z,12.47
2017-07-14T14:58:22.305Z,11.90
2017-07-14T15:00:49.815Z,11.53
2017-07-14T15:03:17.317Z,14.57
2017-07-14T15:05:44.885Z,14.57
2017-07-14T15:08:12.466Z,15.17
2017-07-14T15:10:40.009Z,16.60
2017-07-14T15:13:07.558Z,17.97
2017-07-14T15:15:35.102Z,17.20
2017-07-14T15:18:02.594Z,18.93
2017-07-14T15:20:30.186Z,20.97
2017-07-14T15:22:57.677Z,18.30
2017-07-14T15:25:25.956Z,17.90
2017-07-14T15:27:53.502Z,17.97
2017-07-14T15:30:21.041Z,19.53
2017-07-14T15:32:48.556Z,16.87
2017-07-14T15:35:16.816Z,20.57
2017-07-14T15:37:45.113Z,23.70
2017-07-14T15:40:12.664Z,20.93
2017-07-14T15:42:40.180Z,22.40
2017-07-14T15:45:07.687Z,22.77
2017-07-14T15:47:35.220Z,23.97
2017-07-14T15:50:02.721Z,25.00
2017-07-14T15:52:30.221Z,24.93
2017-07-14T15:54:57.759Z,24.03
2017-07-14T15:57:25.258Z,23.87
2017-07-14T15:59:52.773Z,25.13
2017-07-14T16:02:20.286Z,24.20
2017-07-14T16:04:48.545Z,28.30
2017-07-14T16:07:16.840Z,25.47
2017-07-14T16:09:44.402Z,27.37
2017-07-14T16:12:12.690Z,26.70
2017-07-14T16:14:41.683Z,22.97
2017-07-14T16:17:09.194Z,24.67
2017-07-14T16:19:37.491Z,22.03
2017-07-14T16:22:05.013Z,19.13
2017-07-14T16:24:32.565Z,16.17
2017-07-14T16:27:00.101Z,15.80
2017-07-14T16:29:27.641Z,14.90
2017-07-14T16:31:55.181Z,12.97
2017-07-14T16:34:22.669Z,16.60
2017-07-14T16:36:50.168Z,15.70
2017-07-14T16:39:18.445Z,13.50
2017-07-14T16:41:45.973Z,14.00
2017-07-14T16:44:13.482Z,11.70
2017-07-14T16:46:41.986Z,11.10
2017-07-14T16:49:09.477Z,12.57
2017-07-14T16:51:36.961Z,12.37
2017-07-14T16:54:04.621Z,10.87
2017-07-14T16:56:32.117Z,10.93
2017-07-14T16:58:59.705Z,10.73
2017-07-14T17:01:27.465Z,8.27
2017-07-14T17:03:55.015Z,9.17
2017-07-14T17:06:22.556Z,8.10
2017-07-14T17:08:50.859Z,7.60
2017-07-14T17:11:18.453Z,7.47
2017-07-14T17:13:45.989Z,6.60
2017-07-14T17:16:13.473Z,5.27
2017-07-14T17:18:40.949Z,6.67
2017-07-14T17:21:08.462Z,6.03
2017-07-14T17:23:36.015Z,4.83
2017-07-14T17:26:03.586Z,5.00
2017-07-14T17:28:31.176Z,5.13
2017-07-14T17:30:58.741Z,5.63
2017-07-14T17:33:26.237Z,5.37
2017-07-14T17:35:54.517Z,4.90
2017-07-14T17:38:22.005Z,5.43
2017-07-14T17:40:49.605Z,5.50
2017-07-14T17:43:17.124Z,5.80
2017-07-14T17:45:45.390Z,5.90
2017-07-14T17:48:12.962Z,5.50
2017-07-14T17:50:40.461Z,4.60
2017-07-14T17:53:09.990Z,5.40
2017-07-14T17:55:37.501Z,4.57
2017-07-14T17:58:05.072Z,4.27
2017-07-14T18:00:32.790Z,4.93
2017-07-14T18:03:00.336Z,5.30
2017-07-14T18:05:27.876Z,5.50
2017-07-14T18:07:55.633Z,5.97
2017-07-14T18:10:23.180Z,4.47
2017-07-14T18:12:50.724Z,5.07
2017-07-14T18:15:18.291Z,4.53
2017-07-14T18:17:45.790Z,3.90
2017-07-14T18:20:14.085Z,4.17
2017-07-14T18:22:41.607Z,3.30
2017-07-14T18:25:09.308Z,4.50
2017-07-14T18:27:36.872Z,4.40
2017-07-14T18:30:05.145Z,3.93
2017-07-14T18:32:32.701Z,4.40
2017-07-14T18:35:00.205Z,3.70
2017-07-14T18:37:28.542Z,4.00
2017-07-14T18:39:56.054Z,3.50
2017-07-14T18:42:23.742Z,3.40
2017-07-14T18:44:51.298Z,3.40
2017-07-14T18:47:18.786Z,3.47
2017-07-14T18:49:47.049Z,3.53
2017-07-14T18:52:14.559Z,3.07
2017-07-14T18:54:42.045Z,2.80
2017-07-14T18:57:09.541Z,2.93
2017-07-14T18:59:37.831Z,2.73
2017-07-14T19:02:05.585Z,3.37
2017-07-14T19:04:33.094Z,3.03
2017-07-14T19:07:00.601Z,3.27
2017-07-14T19:09:28.125Z,2.80
2017-07-14T19:11:55.649Z,2.83
2017-07-14T19:14:23.159Z,3.40
2017-07-14T19:16:51.534Z,3.40
2017-07-14T19:19:20.179Z,3.80
2017-07-14T19:21:47.667Z,3.00
2017-07-14T19:24:15.440Z,4.20
2017-07-14T19:26:42.937Z,3.63
2017-07-14T19:29:10.431Z,3.20
2017-07-14T19:31:37.986Z,4.03
2017-07-14T19:34:05.587Z,4.20
2017-07-14T19:36:33.145Z,4.20
2017-07-14T19:39:00.649Z,3.67
2017-07-14T19:41:28.918Z,3.63
2017-07-14T19:43:56.416Z,4.03
2017-07-14T19:46:24.021Z,4.07
2017-07-14T19:48:52.003Z,4.00
2017-07-14T19:51:19.626Z,3.90
2017-07-14T19:53:47.165Z,4.57
2017-07-14T19:56:14.665Z,3.23
2017-07-14T19:58:42.175Z,3.70
2017-07-14T20:01:09.806Z,3.33
2017-07-14T20:03:37.350Z,2.93
2017-07-14T20:06:04.883Z,3.83
2017-07-14T20:08:32.393Z,4.57
2017-07-14T20:11:00.684Z,3.60
2017-07-14T20:13:28.229Z,3.73
2017-07-14T20:15:55.787Z,3.97
2017-07-14T20:18:23.340Z,4.77
2017-07-14T20:20:50.849Z,3.93
2017-07-14T20:23:18.616Z,3.53
2017-07-14T20:25:46.131Z,2.97
2017-07-14T20:28:13.693Z,3.80
2017-07-14T20:30:41.271Z,3.93
2017-07-14T20:33:08.785Z,4.53
2017-07-14T20:35:36.314Z,4.53
2017-07-14T20:38:03.829Z,3.73
2017-07-14T20:40:31.358Z,4.70
2017-07-14T20:42:58.862Z,3.93
2017-07-14T20:45:26.353Z,4.60
2017-07-14T20:47:53.945Z,3.33
2017-07-14T20:50:21.481Z,3.20
2017-07-14T20:52:49.029Z,2.17
2017-07-14T20:55:16.578Z,1.97
2017-07-14T20:57:44.217Z,2.20
2017-07-14T21:00:11.716Z,2.13
2017-07-14T21:02:39.209Z,1.67
2017-07-14T21:05:06.961Z,1.83
2017-07-14T21:07:34.606Z,1.50
2017-07-14T21:10:02.166Z,2.07
2017-07-14T21:12:29.697Z,2.10
2017-07-14T21:14:57.224Z,2.00
2017-07-14T21:17:24.978Z,2.07
2017-07-14T21:19:52.560Z,2.50
2017-07-14T21:22:20.048Z,2.30
2017-07-14T21:24:48.329Z,2.20
2017-07-14T21:27:15.816Z,1.73
2017-07-14T21:29:43.410Z,4.30
2017-07-14T21:32:10.939Z,2.30
2017-07-14T21:34:38.459Z,2.63
2017-07-14T21:37:06.769Z,2.43
2017-07-14T21:39:34.289Z,2.77
2017-07-14T21:42:01.849Z,3.10
2017-07-14T21:44:29.351Z,2.90
2017-07-14T21:46:56.930Z,3.73
2017-07-14T21:49:24.445Z,4.03
2017-07-14T21:51:52.699Z,4.07
2017-07-14T21:54:20.997Z,4.00
2017-07-14T21:56:48.537Z,3.60
2017-07-14T21:59:16.032Z,5.13
2017-07-14T22:01:43.625Z,3.60
2017-07-14T22:04:11.302Z,3.90
2017-07-14T22:06:38.806Z,3.93
2017-07-14T22:09:06.330Z,4.60
2017-07-14T22:11:34.611Z,4.50
2017-07-14T22:14:02.141Z,3.33
2017-07-14T22:16:29.665Z,3.67
2017-07-14T22:18:57.970Z,3.67
2017-07-14T22:21:25.511Z,3.73
2017-07-14T22:23:53.049Z,3.07
2017-07-14T22:26:20.597Z,3.73
2017-07-14T22:28:48.139Z,4.77
2017-07-14T22:31:15.630Z,3.80
2017-07-14T22:33:43.122Z,4.30
2017-07-14T22:36:10.621Z,4.93
2017-07-14T22:38:38.234Z,3.53
2017-07-14T22:41:05.776Z,3.60
2017-07-14T22:43:33.279Z,3.77
2017-07-14T22:46:00.832Z,3.37
2017-07-14T22:48:28.591Z,3.40
2017-07-14T22:50:56.087Z,3.47
2017-07-14T22:53:23.578Z,3.20
2017-07-14T22:55:51.252Z,3.47
2017-07-14T22:58:18.765Z,2.57
2017-07-14T23:00:46.309Z,3.10
2017-07-14T23:03:13.855Z,3.10
2017-07-14T23:05:41.407Z,3.33
2017-07-14T23:08:08.950Z,3.00
2017-07-14T23:10:36.477Z,3.37
2017-07-14T23:13:04.029Z,3.20
2017-07-14T23:15:31.560Z,3.27
2017-07-14T23:17:59.118Z,3.37
2017-07-14T23:20:26.625Z,3.43
2017-07-14T23:22:54.917Z,3.67
2017-07-14T23:25:22.457Z,3.53
2017-07-14T23:27:49.956Z,2.80
2017-07-14T23:30:17.546Z,3.00
2017-07-14T23:32:45.033Z,3.73
2017-07-14T23:35:12.626Z,3.87
2017-07-14T23:37:40.164Z,4.07
2017-07-14T23:40:07.719Z,3.93
2017-07-14T23:42:35.265Z,3.87
2017-07-14T23:45:02.913Z,3.80
2017-07-14T23:47:30.449Z,3.53
2017-07-14T23:49:57.937Z,4.33
2017-07-14T23:52:25.565Z,3.20
2017-07-14T23:54:53.052Z,3.60
2017-07-14T23:57:21.341Z,3.60
2017-07-14T23:59:48.889Z,4.00
